MSC Hamburg — 3FYY8 — position and weather

sailwx.info

Track history (hours):
 
Tides and Currents Weather Stations Pressure Air Temp Water Temp Dewpoint Dewpoint Depression Visibility Wind Speed Wind Dir Waves Ship Positions

MSC Hamburg

Last reported at 2018-Jan-23 10:22 UTC. Time now 2018-Jan-24 09:51 UTC.
Position N 38°39' E 121°38'.

Length 399 m; draft 12.2 m.

Type: Ship (hazmat cat A). MMSI: 374886000.

Date/timePositionNaut miles runAvg speedWind from/ knotsBaromVisibWave heightAir tempDewpointWater temp
2018-Jan-23 10:22N 38°39' E 121°38'513.5
2018-Jan-23 10:01N 38°43' E 121°42'813.3
2018-Jan-23 09:24N 38°48' E 121°50'4 9.9
2018-Jan-23 08:58N 38°52' E 121°53'6 0.2
2018-Jan-21 22:14N 38°57' E 121°56'2 7.6
2018-Jan-21 21:59N 38°56' E 121°57'713.6
2018-Jan-21 21:30N 38°49' E 121°59'714.4
2018-Jan-21 21:00N 38°43' E 122°04'714.2
2018-Jan-21 20:30N 38°37' E 122°09'714.8
2018-Jan-21 20:00N 38°32' E 122°16'  
2018-Jan-19 12:55N 25°04' E 120°33'7515.8
2018-Jan-19 08:08N 23°58' E 119°54'414.9
2018-Jan-19 07:53N 23°54' E 119°54'614.8
2018-Jan-19 07:28N 23°48' E 119°53'714.3
2018-Jan-19 07:00N 23°41' E 119°53'714.8
2018-Jan-19 06:30N 23°34' E 119°53'815.1
2018-Jan-19 06:01N 23°26' E 119°53'815.6
2018-Jan-19 05:30N 23°18' E 119°53'916.2
2018-Jan-19 04:58N 23°10' E 119°54'816.6
2018-Jan-19 04:29N 23°02' E 119°54'817.3
2018-Jan-19 04:01N 22°53' E 119°54'917.4
2018-Jan-19 03:30N 22°45' E 119°54'917.9
2018-Jan-19 03:00N 22°36' E 119°54'918.0
2018-Jan-19 02:30N 22°27' E 119°53'917.8
2018-Jan-19 02:00N 22°19' E 119°49'1017.8
2018-Jan-19 01:28N 22°11' E 119°43'  
Track history (hours):
 
Tides and Currents Weather Stations Pressure Air Temp Water Temp Dewpoint Dewpoint Depression Visibility Wind Speed Wind Dir Waves Ship Positions

MSC Hamburg

Last reported at 2018-Jan-23 10:22 UTC. Time now 2018-Jan-24 09:51 UTC.
Position N 38°39' E 121°38'.

Length 399 m; draft 12.2 m.

Type: Ship (hazmat cat A). MMSI: 374886000.

Date/timePositionNaut miles runAvg speedWind from/ knotsBaromVisibWave heightAir tempDewpointWater temp
2018-Jan-23 10:22N 38°39' E 121°38'513.5
2018-Jan-23 10:01N 38°43' E 121°42'813.3
2018-Jan-23 09:24N 38°48' E 121°50'4 9.9
2018-Jan-23 08:58N 38°52' E 121°53'6 0.2
2018-Jan-21 22:14N 38°57' E 121°56'2 7.6
2018-Jan-21 21:59N 38°56' E 121°57'713.6
2018-Jan-21 21:30N 38°49' E 121°59'714.4
2018-Jan-21 21:00N 38°43' E 122°04'714.2
2018-Jan-21 20:30N 38°37' E 122°09'714.8
2018-Jan-21 20:00N 38°32' E 122°16'  
2018-Jan-19 12:55N 25°04' E 120°33'7515.8
2018-Jan-19 08:08N 23°58' E 119°54'414.9
2018-Jan-19 07:53N 23°54' E 119°54'614.8
2018-Jan-19 07:28N 23°48' E 119°53'714.3
2018-Jan-19 07:00N 23°41' E 119°53'714.8
2018-Jan-19 06:30N 23°34' E 119°53'815.1
2018-Jan-19 06:01N 23°26' E 119°53'815.6
2018-Jan-19 05:30N 23°18' E 119°53'916.2
2018-Jan-19 04:58N 23°10' E 119°54'816.6
2018-Jan-19 04:29N 23°02' E 119°54'817.3
2018-Jan-19 04:01N 22°53' E 119°54'917.4
2018-Jan-19 03:30N 22°45' E 119°54'917.9
2018-Jan-19 03:00N 22°36' E 119°54'918.0
2018-Jan-19 02:30N 22°27' E 119°53'917.8
2018-Jan-19 02:00N 22°19' E 119°49'1017.8
2018-Jan-19 01:28N 22°11' E 119°43'  

Dump ship's entire track history